createdAt,value
2023-04-01T00:01:54.134Z,18.45
2023-04-01T00:04:21.779Z,15.45
2023-04-01T00:06:49.009Z,17.48
2023-04-01T00:09:16.264Z,18.10
2023-04-01T00:11:43.419Z,17.65
2023-04-01T00:14:10.544Z,16.83
2023-04-01T00:16:37.670Z,17.35
2023-04-01T00:19:04.722Z,16.00
2023-04-01T00:21:31.784Z,16.50
2023-04-01T00:23:58.912Z,17.63
2023-04-01T00:26:26.377Z,17.85
2023-04-01T00:28:55.325Z,24.40
2023-04-01T00:31:24.715Z,27.17
2023-04-01T00:33:55.571Z,21.80
2023-04-01T00:36:24.486Z,37.50
2023-04-01T00:38:52.954Z,29.25
2023-04-01T00:41:25.131Z,24.17
2023-04-01T00:43:53.346Z,23.75
2023-04-01T00:46:21.036Z,26.25
2023-04-01T00:48:55.422Z,16.25
2023-04-01T00:51:29.240Z,17.63
2023-04-01T00:53:59.558Z,15.38
2023-04-01T00:56:42.168Z,14.98
2023-04-01T00:59:15.713Z,13.70
2023-04-01T01:01:43.682Z,13.30
2023-04-01T01:04:29.675Z,13.40
2023-04-01T01:06:58.012Z,11.70
2023-04-01T01:09:27.039Z,14.73
2023-04-01T01:12:03.274Z,12.05
2023-04-01T01:14:51.803Z,13.95
2023-04-01T01:17:21.746Z,13.98
2023-04-01T01:19:52.134Z,14.18
2023-04-01T01:22:38.000Z,13.63
2023-04-01T01:25:21.101Z,13.77
2023-04-01T01:28:18.764Z,13.50
2023-04-01T01:31:01.612Z,21.10
2023-04-01T01:33:31.583Z,15.77
2023-04-01T01:36:03.201Z,14.00
2023-04-01T01:38:33.771Z,13.90
2023-04-01T01:41:05.291Z,14.45
2023-04-01T01:43:43.399Z,12.57
2023-04-01T01:46:15.728Z,14.90
2023-04-01T01:48:44.934Z,14.13
2023-04-01T01:51:12.043Z,15.85
2023-04-01T01:53:39.046Z,15.63
2023-04-01T01:56:07.021Z,14.90
2023-04-01T01:58:46.536Z,15.75
2023-04-01T02:01:24.496Z,13.77
2023-04-01T02:03:54.576Z,12.48
2023-04-01T02:06:28.540Z,15.30
2023-04-01T02:09:04.039Z,15.75
2023-04-01T02:11:35.765Z,15.38
2023-04-01T02:14:08.995Z,16.40
2023-04-01T02:17:05.504Z,17.08
2023-04-01T02:19:37.896Z,15.48
2023-04-01T02:22:10.243Z,16.83
2023-04-01T02:24:43.128Z,16.58
2023-04-01T02:27:13.852Z,17.05
2023-04-01T02:29:41.109Z,15.02
2023-04-01T02:32:10.944Z,16.92
2023-04-01T02:34:38.563Z,14.50
2023-04-01T02:37:05.810Z,18.27
2023-04-01T02:39:32.864Z,14.77
2023-04-01T02:42:00.157Z,15.05
2023-04-01T02:44:27.190Z,14.98
2023-04-01T02:46:54.340Z,12.80
2023-04-01T02:49:21.428Z,12.10
2023-04-01T02:51:48.332Z,14.38
2023-04-01T02:54:15.455Z,13.93
2023-04-01T02:56:43.326Z,12.45
2023-04-01T02:59:10.377Z,14.63
2023-04-01T03:01:37.435Z,14.88
2023-04-01T03:04:04.979Z,14.73
2023-04-01T03:06:32.096Z,11.18
2023-04-01T03:08:59.154Z,13.98
2023-04-01T03:11:27.358Z,14.63
2023-04-01T03:13:54.386Z,13.70
2023-04-01T03:16:21.397Z,14.30
2023-04-01T03:18:51.704Z,14.32
2023-04-01T03:21:22.662Z,14.77
2023-04-01T03:23:51.183Z,14.38
2023-04-01T03:26:19.221Z,14.45
2023-04-01T03:28:46.320Z,11.65
2023-04-01T03:31:13.506Z,13.10
2023-04-01T03:33:47.657Z,15.20
2023-04-01T03:36:15.067Z,18.05
2023-04-01T03:38:42.599Z,14.00
2023-04-01T03:41:14.507Z,15.13
2023-04-01T03:43:42.389Z,16.00
2023-04-01T03:46:09.628Z,15.57
2023-04-01T03:48:36.776Z,16.05
2023-04-01T03:51:08.687Z,15.68
2023-04-01T03:53:37.730Z,15.32
2023-04-01T03:56:07.730Z,14.70
2023-04-01T03:58:37.603Z,13.40
2023-04-01T04:01:19.310Z,9.32
2023-04-01T04:03:47.576Z,15.55
2023-04-01T04:06:15.662Z,13.45
2023-04-01T04:08:43.560Z,14.05
2023-04-01T04:11:10.731Z,13.77
2023-04-01T04:13:41.455Z,13.10
2023-04-01T04:16:09.756Z,13.90
2023-04-01T04:18:40.312Z,11.35
2023-04-01T04:21:07.872Z,10.85
2023-04-01T04:23:34.906Z,12.52
2023-04-01T04:26:05.380Z,12.57
2023-04-01T04:28:33.212Z,14.68
2023-04-01T04:31:00.947Z,10.90
2023-04-01T04:33:29.853Z,10.60
2023-04-01T04:35:58.468Z,10.73
2023-04-01T04:38:26.544Z,12.73
2023-04-01T04:40:55.602Z,9.93
2023-04-01T04:43:24.085Z,13.88
2023-04-01T04:45:52.572Z,8.30
2023-04-01T04:48:20.114Z,12.60
2023-04-01T04:50:49.770Z,13.85
2023-04-01T04:55:49.991Z,12.98
2023-04-01T04:58:34.941Z,10.30
2023-04-01T05:01:14.946Z,9.65
2023-04-01T05:03:43.093Z,11.10
2023-04-01T05:06:13.022Z,11.63
2023-04-01T05:08:41.509Z,13.00
2023-04-01T05:11:13.859Z,15.23
2023-04-01T05:13:43.624Z,11.32
2023-04-01T05:16:12.804Z,5.88
2023-04-01T05:18:40.384Z,14.85
2023-04-01T05:21:09.695Z,13.45
2023-04-01T05:23:37.365Z,9.90
2023-04-01T05:26:09.994Z,14.55
2023-04-01T05:28:37.244Z,13.68
2023-04-01T05:31:06.040Z,15.00
2023-04-01T05:33:38.864Z,12.70
2023-04-01T05:36:09.989Z,13.38
2023-04-01T05:38:37.038Z,13.88
2023-04-01T05:41:05.675Z,13.90
2023-04-01T05:43:37.795Z,10.43
2023-04-01T05:46:25.508Z,10.55
2023-04-01T05:49:06.814Z,13.93
2023-04-01T05:51:34.111Z,15.50
2023-04-01T05:54:01.146Z,14.20
2023-04-01T05:56:28.358Z,16.10
2023-04-01T05:58:56.229Z,16.40
2023-04-01T06:01:27.256Z,16.15
2023-04-01T06:03:54.668Z,9.70
2023-04-01T06:06:27.826Z,13.65
2023-04-01T06:09:12.246Z,12.20
2023-04-01T06:12:08.731Z,9.93
2023-04-01T06:15:16.572Z,13.70
2023-04-01T06:17:49.827Z,16.33
2023-04-01T06:20:41.233Z,6.28
2023-04-01T06:23:16.998Z,14.85
2023-04-01T06:26:02.883Z,16.55
2023-04-01T06:28:54.858Z,15.43
2023-04-01T06:31:37.238Z,17.43
2023-04-01T06:34:32.356Z,11.88
2023-04-01T06:37:21.463Z,12.07
2023-04-01T06:40:13.446Z,16.75
2023-04-01T06:43:02.609Z,10.85
2023-04-01T06:46:10.512Z,11.05
2023-04-01T06:49:33.601Z,14.75
2023-04-01T06:52:28.040Z,11.68
2023-04-01T06:55:34.561Z,14.45
2023-04-01T06:58:30.543Z,15.52
2023-04-01T07:01:06.127Z,16.88
2023-04-01T07:03:40.280Z,16.88
2023-04-01T07:06:28.146Z,8.57
2023-04-01T07:09:04.303Z,10.25
2023-04-01T07:11:58.712Z,14.20
2023-04-01T07:14:57.542Z,16.00
2023-04-01T07:17:29.849Z,14.70
2023-04-01T07:20:12.265Z,16.05
2023-04-01T07:22:44.686Z,17.20
2023-04-01T07:25:35.184Z,13.05
2023-04-01T07:28:31.613Z,16.65
2023-04-01T07:31:31.629Z,15.20
2023-04-01T07:34:15.515Z,15.65
2023-04-01T07:36:48.325Z,8.68
2023-04-01T07:39:33.636Z,15.52
2023-04-01T07:42:58.411Z,12.35
2023-04-01T07:45:32.378Z,14.45
2023-04-01T07:48:21.412Z,15.55
2023-04-01T07:51:03.879Z,14.07
2023-04-01T07:53:51.441Z,11.65
2023-04-01T07:56:28.094Z,13.85
2023-04-01T07:58:54.995Z,15.00
2023-04-01T08:01:53.726Z,14.80
2023-04-01T08:04:32.577Z,12.85
2023-04-01T08:07:21.620Z,12.65
2023-04-01T08:10:26.502Z,12.52
2023-04-01T08:13:24.038Z,12.10
2023-04-01T08:16:33.286Z,11.70
2023-04-01T08:19:32.364Z,11.85
2023-04-01T08:22:08.448Z,11.27
2023-04-01T08:24:47.497Z,11.52
2023-04-01T08:27:30.032Z,11.18
2023-04-01T08:30:25.886Z,12.02
2023-04-01T08:33:30.594Z,10.48
2023-04-01T08:36:34.584Z,11.73
2023-04-01T08:39:28.983Z,11.38
2023-04-01T08:42:33.180Z,10.53
2023-04-01T08:45:29.837Z,10.60
2023-04-01T08:48:16.298Z,11.30
2023-04-01T08:51:03.150Z,8.73
2023-04-01T08:53:51.855Z,9.48
2023-04-01T08:56:54.182Z,8.75
2023-04-01T08:59:24.745Z,8.15
2023-04-01T09:02:01.066Z,7.65
2023-04-01T09:04:49.473Z,8.75
2023-04-01T09:07:22.397Z,8.60
2023-04-01T09:10:12.943Z,7.35
2023-04-01T09:12:52.400Z,8.07
2023-04-01T09:15:56.462Z,6.10
2023-04-01T09:19:03.680Z,7.35
2023-04-01T09:22:01.266Z,7.85
2023-04-01T09:24:40.548Z,7.60
2023-04-01T09:27:27.545Z,7.93
2023-04-01T09:30:07.211Z,8.23
2023-04-01T09:33:06.678Z,6.88
2023-04-01T09:35:50.175Z,7.40
2023-04-01T09:38:23.081Z,7.40
2023-04-01T09:41:08.854Z,6.90
2023-04-01T09:43:59.253Z,7.00
2023-04-01T09:46:35.962Z,6.80
2023-04-01T09:49:27.666Z,7.70
2023-04-01T09:52:46.466Z,7.90
2023-04-01T09:56:00.446Z,7.53
2023-04-01T09:58:52.849Z,5.03
2023-04-01T10:02:00.043Z,5.82
2023-04-01T10:07:52.304Z,5.78
2023-04-01T10:11:00.591Z,5.30
2023-04-01T10:13:52.718Z,5.38
2023-04-01T10:16:41.093Z,5.43
2023-04-01T10:19:49.887Z,4.30
2023-04-01T10:22:36.449Z,5.78
2023-04-01T10:25:16.703Z,5.40
2023-04-01T10:28:12.189Z,6.25
2023-04-01T10:31:08.059Z,5.97
2023-04-01T10:33:59.369Z,5.75
2023-04-01T10:36:44.761Z,5.68
2023-04-01T10:39:24.076Z,5.63
2023-04-01T10:42:09.155Z,6.13
2023-04-01T10:45:26.099Z,5.07
2023-04-01T10:48:11.144Z,5.25
2023-04-01T10:50:56.504Z,5.47
2023-04-01T10:54:16.983Z,6.10
2023-04-01T10:57:21.501Z,5.20
2023-04-01T11:00:35.542Z,4.80
2023-04-01T11:04:13.096Z,5.95
2023-04-01T11:07:30.383Z,5.38
2023-04-01T11:10:25.452Z,5.20
2023-04-01T11:13:12.776Z,5.43
2023-04-01T11:16:00.556Z,4.78
2023-04-01T11:18:54.567Z,5.50
2023-04-01T11:22:00.671Z,5.13
2023-04-01T11:25:16.539Z,5.10
2023-04-01T11:28:21.371Z,5.47
2023-04-01T11:31:07.220Z,5.50
2023-04-01T11:33:40.002Z,5.07
2023-04-01T11:36:42.022Z,4.25
2023-04-01T11:39:38.260Z,5.30
2023-04-01T11:42:36.102Z,5.00
2023-04-01T11:45:47.796Z,4.88
2023-04-01T11:48:38.693Z,5.22
2023-04-01T11:51:32.070Z,5.03
2023-04-01T11:54:25.844Z,4.68
2023-04-01T11:56:56.055Z,5.15
2023-04-01T11:59:41.512Z,5.95
2023-04-01T12:02:19.327Z,5.28
2023-04-01T12:04:58.199Z,4.95
2023-04-01T12:07:54.529Z,5.22
2023-04-01T12:10:37.523Z,5.10
2023-04-01T12:13:46.304Z,5.55
2023-04-01T12:16:13.274Z,4.15
2023-04-01T12:18:49.232Z,4.63
2023-04-01T12:22:12.070Z,3.88
2023-04-01T12:25:06.731Z,4.40
2023-04-01T12:27:45.152Z,3.25
2023-04-01T12:30:33.169Z,3.72
2023-04-01T12:33:15.470Z,3.22
2023-04-01T12:36:25.777Z,4.97
2023-04-01T12:39:14.542Z,4.35
2023-04-01T12:41:53.950Z,4.90
2023-04-01T12:44:51.025Z,3.95
2023-04-01T12:47:37.020Z,4.25
2023-04-01T12:50:27.246Z,4.68
2023-04-01T12:53:12.971Z,4.80
2023-04-01T12:55:41.854Z,4.93
2023-04-01T12:58:30.318Z,3.72
2023-04-01T13:00:57.314Z,5.18
2023-04-01T13:04:06.834Z,4.38
2023-04-01T13:06:47.016Z,5.05
2023-04-01T13:09:41.599Z,4.05
2023-04-01T13:12:37.637Z,3.80
2023-04-01T13:15:07.505Z,4.55
2023-04-01T13:17:40.607Z,4.38
2023-04-01T13:20:10.868Z,4.68
2023-04-01T13:22:47.055Z,4.07
2023-04-01T13:25:23.123Z,4.65
2023-04-01T13:27:57.200Z,4.13
2023-04-01T13:30:40.716Z,7.03
2023-04-01T13:33:18.180Z,4.63
2023-04-01T13:36:22.379Z,5.15
2023-04-01T13:39:08.238Z,5.10
2023-04-01T13:41:50.879Z,5.00
2023-04-01T13:44:33.996Z,5.72
2023-04-01T13:47:25.699Z,5.18
2023-04-01T13:50:04.753Z,4.70
2023-04-01T13:53:17.209Z,5.72
2023-04-01T13:56:02.281Z,5.22
2023-04-01T13:58:53.449Z,5.38
2023-04-01T14:01:23.054Z,5.63
2023-04-01T14:03:53.191Z,4.28
2023-04-01T14:06:29.190Z,5.53
2023-04-01T14:09:18.253Z,5.30
2023-04-01T14:12:03.425Z,5.88
2023-04-01T14:14:54.911Z,6.63
2023-04-01T14:18:07.841Z,5.20
2023-04-01T14:20:41.884Z,6.25
2023-04-01T14:23:38.958Z,6.90
2023-04-01T14:26:31.452Z,7.25
2023-04-01T14:29:23.086Z,7.97
2023-04-01T14:31:50.284Z,7.60
2023-04-01T14:34:26.282Z,4.50
2023-04-01T14:37:16.746Z,7.90
2023-04-01T14:42:50.349Z,8.57
2023-04-01T14:45:23.403Z,7.68
2023-04-01T14:48:18.320Z,6.05
2023-04-01T14:50:52.384Z,5.97
2023-04-01T14:53:30.194Z,8.73
2023-04-01T14:59:30.405Z,9.23
2023-04-01T15:02:31.658Z,8.80
2023-04-01T15:08:26.170Z,9.48
2023-04-01T15:10:56.296Z,10.02
2023-04-01T15:13:43.006Z,6.70
2023-04-01T15:16:29.134Z,8.57
2023-04-01T15:19:17.497Z,10.48
2023-04-01T15:22:21.552Z,9.77
2023-04-01T15:24:53.052Z,11.18
2023-04-01T15:27:43.542Z,10.90
2023-04-01T15:33:26.151Z,11.50
2023-04-01T15:36:17.586Z,11.88
2023-04-01T15:38:54.154Z,11.73
2023-04-01T15:41:27.169Z,11.45
2023-04-01T15:43:54.199Z,11.35
2023-04-01T15:46:42.457Z,13.05
2023-04-01T15:49:29.715Z,13.23
2023-04-01T15:52:22.964Z,11.30
2023-04-01T15:55:32.796Z,13.10
2023-04-01T15:58:21.104Z,12.50
2023-04-01T16:01:23.480Z,9.80
2023-04-01T16:03:53.535Z,10.60
2023-04-01T16:06:47.577Z,10.80
2023-04-01T16:09:21.183Z,12.15
2023-04-01T16:11:55.818Z,12.27
2023-04-01T16:14:53.923Z,11.35
2023-04-01T16:17:23.767Z,11.40
2023-04-01T16:19:57.521Z,10.68
2023-04-01T16:22:32.717Z,8.75
2023-04-01T16:25:24.495Z,7.82
2023-04-01T16:28:31.836Z,8.45
2023-04-01T16:31:13.569Z,7.55
2023-04-01T16:33:59.921Z,7.82
2023-04-01T16:36:37.344Z,8.15
2023-04-01T16:39:19.515Z,7.45
2023-04-01T16:42:07.695Z,7.85
2023-04-01T16:45:03.355Z,8.48
2023-04-01T16:47:50.646Z,5.50
2023-04-01T16:50:23.030Z,7.50
2023-04-01T16:53:02.024Z,5.72
2023-04-01T16:55:50.788Z,6.75
2023-04-01T16:58:41.297Z,9.07
2023-04-01T17:03:43.738Z,8.38
2023-04-01T17:06:35.044Z,5.32
2023-04-01T17:09:02.099Z,5.97
2023-04-01T17:11:45.394Z,7.53
2023-04-01T17:14:34.613Z,5.38
2023-04-01T17:17:19.355Z,8.50
2023-04-01T17:20:26.216Z,6.63
2023-04-01T17:23:06.825Z,5.93
2023-04-01T17:25:43.008Z,8.95
2023-04-01T17:28:35.742Z,8.50
2023-04-01T17:31:24.260Z,10.30
2023-04-01T17:34:09.683Z,8.75
2023-04-01T17:36:57.167Z,9.13
2023-04-01T17:39:56.172Z,8.40
2023-04-01T17:42:56.046Z,6.45
2023-04-01T17:45:27.874Z,8.32
2023-04-01T17:48:10.176Z,8.32
2023-04-01T17:50:37.085Z,9.55
2023-04-01T17:53:15.880Z,8.00
2023-04-01T17:55:46.681Z,8.88
2023-04-01T17:58:45.346Z,9.43
2023-04-01T18:01:52.994Z,10.10
2023-04-01T18:04:37.332Z,8.00
2023-04-01T18:07:12.849Z,10.27
2023-04-01T18:10:04.890Z,10.15
2023-04-01T18:13:01.392Z,6.78
2023-04-01T18:15:59.608Z,9.38
2023-04-01T18:18:35.747Z,10.75
2023-04-01T18:21:23.336Z,9.45
2023-04-01T18:24:02.722Z,11.02
2023-04-01T18:26:39.698Z,10.45
2023-04-01T18:29:24.093Z,7.78
2023-04-01T18:32:08.788Z,9.82
2023-04-01T18:34:45.763Z,9.65
2023-04-01T18:37:26.905Z,9.40
2023-04-01T18:40:13.053Z,10.57
2023-04-01T18:43:06.554Z,10.60
2023-04-01T18:45:39.020Z,10.15
2023-04-01T18:48:34.172Z,8.15
2023-04-01T18:51:11.758Z,8.20
2023-04-01T18:53:38.879Z,7.38
2023-04-01T18:56:26.762Z,9.38
2023-04-01T18:59:04.963Z,6.60
2023-04-01T19:01:52.238Z,10.40
2023-04-01T19:04:35.098Z,10.68
2023-04-01T19:07:35.141Z,10.57
2023-04-01T19:10:13.709Z,9.02
2023-04-01T19:12:48.803Z,10.60
2023-04-01T19:15:40.384Z,10.45
2023-04-01T19:18:29.081Z,9.15
2023-04-01T19:21:08.461Z,10.85
2023-04-01T19:24:00.354Z,11.00
2023-04-01T19:26:35.072Z,9.70
2023-04-01T19:29:11.293Z,8.82
2023-04-01T19:31:54.656Z,10.50
2023-04-01T19:34:53.022Z,6.97
2023-04-01T19:37:47.846Z,9.82
2023-04-01T19:40:20.916Z,10.30
2023-04-01T19:42:47.777Z,9.75
2023-04-01T19:45:20.912Z,9.70
2023-04-01T19:48:33.031Z,8.52
2023-04-01T19:51:25.803Z,7.75
2023-04-01T19:54:00.721Z,9.55
2023-04-01T19:56:56.322Z,9.80
2023-04-01T19:59:49.737Z,10.77
2023-04-01T20:02:40.998Z,7.35
2023-04-01T20:05:37.351Z,10.38
2023-04-01T20:08:22.515Z,10.77
2023-04-01T20:10:54.936Z,10.32
2023-04-01T20:13:48.316Z,6.70
2023-04-01T20:16:16.450Z,8.77
2023-04-01T20:18:53.881Z,9.38
2023-04-01T20:21:36.207Z,5.63
2023-04-01T20:24:23.120Z,10.35
2023-04-01T20:27:04.235Z,11.35
2023-04-01T20:29:54.310Z,11.02
2023-04-01T20:32:47.834Z,12.13
2023-04-01T20:35:33.077Z,7.93
2023-04-01T20:38:36.842Z,8.85
2023-04-01T20:41:25.020Z,8.32
2023-04-01T20:43:55.128Z,8.88
2023-04-01T20:46:32.222Z,7.82
2023-04-01T20:49:05.000Z,8.63
2023-04-01T20:51:36.809Z,10.68
2023-04-01T20:54:26.124Z,10.07
2023-04-01T20:57:05.979Z,10.10
2023-04-01T21:00:03.613Z,11.25
2023-04-01T21:02:45.021Z,10.48
2023-04-01T21:05:39.933Z,9.25
2023-04-01T21:08:34.653Z,11.13
2023-04-01T21:11:11.713Z,11.02
2023-04-01T21:14:10.108Z,9.52
2023-04-01T21:17:09.598Z,10.15
2023-04-01T21:20:01.429Z,11.38
2023-04-01T21:23:04.013Z,9.55
2023-04-01T21:25:42.318Z,10.63
2023-04-01T21:28:47.864Z,11.43
2023-04-01T21:31:26.832Z,10.73
2023-04-01T21:34:30.443Z,10.68
2023-04-01T21:37:18.815Z,5.90
2023-04-01T21:39:57.658Z,10.45
2023-04-01T21:42:31.056Z,9.77
2023-04-01T21:45:04.108Z,9.68
2023-04-01T21:47:57.382Z,11.50
2023-04-01T21:50:24.492Z,10.45
2023-04-01T21:53:12.884Z,8.43
2023-04-01T21:55:58.162Z,10.38
2023-04-01T21:58:43.281Z,11.82
2023-04-01T22:01:27.096Z,11.98
2023-04-01T22:04:00.726Z,11.35
2023-04-01T22:06:49.958Z,10.75
2023-04-01T22:09:26.755Z,8.05
2023-04-01T22:12:25.207Z,12.07
2023-04-01T22:15:13.576Z,7.90
2023-04-01T22:18:02.678Z,12.68
2023-04-01T22:20:46.193Z,10.10
2023-04-01T22:23:22.907Z,12.95
2023-04-01T22:25:52.913Z,11.00
2023-04-01T22:28:22.824Z,9.40
2023-04-01T22:30:53.386Z,14.07
2023-04-01T22:33:31.040Z,15.60
2023-04-01T22:36:14.515Z,13.68
2023-04-01T22:39:12.941Z,10.00
2023-04-01T22:41:46.267Z,13.50
2023-04-01T22:44:36.729Z,15.50
2023-04-01T22:49:47.190Z,12.15
2023-04-01T22:52:24.874Z,15.75
2023-04-01T22:55:01.073Z,14.10
2023-04-01T22:57:31.608Z,14.68
2023-04-01T23:00:10.827Z,15.27
2023-04-01T23:02:41.330Z,12.68
2023-04-01T23:05:16.955Z,18.25
2023-04-01T23:08:01.662Z,11.70
2023-04-01T23:10:33.745Z,17.58
2023-04-01T23:13:03.325Z,14.82
2023-04-01T23:15:31.685Z,17.13
2023-04-01T23:18:16.333Z,12.18
2023-04-01T23:21:01.265Z,16.85
2023-04-01T23:23:33.832Z,18.23
2023-04-01T23:26:24.133Z,14.52
2023-04-01T23:28:54.416Z,12.60
2023-04-01T23:31:30.508Z,18.15
2023-04-01T23:34:00.947Z,10.82
2023-04-01T23:36:29.598Z,16.88
2023-04-01T23:38:57.054Z,12.50
2023-04-01T23:41:30.962Z,17.83
2023-04-01T23:44:09.378Z,16.83
2023-04-01T23:46:38.582Z,16.88
2023-04-01T23:49:13.246Z,15.23
2023-04-01T23:51:51.892Z,17.95
2023-04-01T23:54:25.080Z,11.85
2023-04-01T23:56:57.485Z,12.40
2023-04-01T23:59:28.614Z,14.05
